sensor_id;sensor_type;location;lat;lon;timestamp;P1;durP1;ratioP1;P2;durP2;ratioP2
24637;SDS011;12773;50.162;8.548;2022-08-21T00:01:37;13.68;;;7.00;;
24637;SDS011;12773;50.162;8.548;2022-08-21T00:04:25;14.10;;;6.80;;
24637;SDS011;12773;50.162;8.548;2022-08-21T00:07:14;13.45;;;5.90;;
24637;SDS011;12773;50.162;8.548;2022-08-21T00:10:02;12.37;;;6.45;;
24637;SDS011;12773;50.162;8.548;2022-08-21T00:12:50;18.65;;;6.95;;
24637;SDS011;12773;50.162;8.548;2022-08-21T00:15:38;14.95;;;6.00;;
24637;SDS011;12773;50.162;8.548;2022-08-21T00:18:27;13.32;;;6.05;;
24637;SDS011;12773;50.162;8.548;2022-08-21T00:21:15;10.75;;;6.55;;
24637;SDS011;12773;50.162;8.548;2022-08-21T00:24:03;11.75;;;6.72;;
24637;SDS011;12773;50.162;8.548;2022-08-21T00:26:52;14.68;;;6.83;;
24637;SDS011;12773;50.162;8.548;2022-08-21T00:29:40;14.70;;;6.67;;
24637;SDS011;12773;50.162;8.548;2022-08-21T00:32:27;16.55;;;6.40;;
24637;SDS011;12773;50.162;8.548;2022-08-21T00:35:16;14.70;;;7.10;;
24637;SDS011;12773;50.162;8.548;2022-08-21T00:38:06;14.78;;;6.62;;
24637;SDS011;12773;50.162;8.548;2022-08-21T00:40:55;16.30;;;6.55;;
24637;SDS011;12773;50.162;8.548;2022-08-21T00:43:46;13.95;;;6.85;;
24637;SDS011;12773;50.162;8.548;2022-08-21T00:46:34;14.10;;;6.70;;
24637;SDS011;12773;50.162;8.548;2022-08-21T00:49:22;17.85;;;6.75;;
24637;SDS011;12773;50.162;8.548;2022-08-21T00:52:11;16.25;;;7.30;;
24637;SDS011;12773;50.162;8.548;2022-08-21T00:55:03;12.75;;;6.85;;
24637;SDS011;12773;50.162;8.548;2022-08-21T00:57:55;10.70;;;6.78;;
24637;SDS011;12773;50.162;8.548;2022-08-21T01:00:47;13.62;;;7.22;;
24637;SDS011;12773;50.162;8.548;2022-08-21T01:03:36;13.55;;;7.35;;
24637;SDS011;12773;50.162;8.548;2022-08-21T01:06:25;14.28;;;6.72;;
24637;SDS011;12773;50.162;8.548;2022-08-21T01:09:13;17.92;;;7.97;;
24637;SDS011;12773;50.162;8.548;2022-08-21T01:12:01;15.35;;;7.00;;
24637;SDS011;12773;50.162;8.548;2022-08-21T01:14:49;13.03;;;7.12;;
24637;SDS011;12773;50.162;8.548;2022-08-21T01:17:36;13.43;;;7.40;;
24637;SDS011;12773;50.162;8.548;2022-08-21T01:20:23;13.95;;;7.05;;
24637;SDS011;12773;50.162;8.548;2022-08-21T01:23:13;14.07;;;7.22;;
24637;SDS011;12773;50.162;8.548;2022-08-21T01:26:00;13.80;;;7.10;;
24637;SDS011;12773;50.162;8.548;2022-08-21T01:28:58;12.25;;;6.95;;
24637;SDS011;12773;50.162;8.548;2022-08-21T01:31:47;9.80;;;6.85;;
24637;SDS011;12773;50.162;8.548;2022-08-21T01:34:35;13.75;;;7.00;;
24637;SDS011;12773;50.162;8.548;2022-08-21T01:37:25;15.93;;;7.40;;
24637;SDS011;12773;50.162;8.548;2022-08-21T01:43:19;12.70;;;7.13;;
24637;SDS011;12773;50.162;8.548;2022-08-21T01:46:08;14.38;;;7.37;;
24637;SDS011;12773;50.162;8.548;2022-08-21T01:48:55;11.73;;;7.20;;
24637;SDS011;12773;50.162;8.548;2022-08-21T01:51:43;10.28;;;6.10;;
24637;SDS011;12773;50.162;8.548;2022-08-21T01:54:30;14.33;;;6.53;;
24637;SDS011;12773;50.162;8.548;2022-08-21T01:57:18;12.33;;;6.83;;
24637;SDS011;12773;50.162;8.548;2022-08-21T02:00:08;10.05;;;6.62;;
24637;SDS011;12773;50.162;8.548;2022-08-21T02:02:57;11.20;;;6.70;;
24637;SDS011;12773;50.162;8.548;2022-08-21T02:05:45;12.20;;;6.78;;
24637;SDS011;12773;50.162;8.548;2022-08-21T02:08:32;11.25;;;7.12;;
24637;SDS011;12773;50.162;8.548;2022-08-21T02:11:20;9.58;;;6.40;;
24637;SDS011;12773;50.162;8.548;2022-08-21T02:14:11;12.60;;;7.22;;
24637;SDS011;12773;50.162;8.548;2022-08-21T02:17:01;12.05;;;7.20;;
24637;SDS011;12773;50.162;8.548;2022-08-21T02:19:51;13.78;;;7.50;;
24637;SDS011;12773;50.162;8.548;2022-08-21T02:22:38;12.20;;;7.67;;
24637;SDS011;12773;50.162;8.548;2022-08-21T02:25:26;19.00;;;7.78;;
24637;SDS011;12773;50.162;8.548;2022-08-21T02:28:14;12.05;;;7.50;;
24637;SDS011;12773;50.162;8.548;2022-08-21T02:31:02;14.35;;;7.10;;
24637;SDS011;12773;50.162;8.548;2022-08-21T02:33:50;11.88;;;7.58;;
24637;SDS011;12773;50.162;8.548;2022-08-21T02:36:38;10.88;;;7.45;;
24637;SDS011;12773;50.162;8.548;2022-08-21T02:39:26;12.43;;;7.78;;
24637;SDS011;12773;50.162;8.548;2022-08-21T02:42:14;13.45;;;8.08;;
24637;SDS011;12773;50.162;8.548;2022-08-21T02:45:02;11.57;;;7.40;;
24637;SDS011;12773;50.162;8.548;2022-08-21T02:47:50;11.18;;;6.58;;
24637;SDS011;12773;50.162;8.548;2022-08-21T02:50:50;14.10;;;7.67;;
24637;SDS011;12773;50.162;8.548;2022-08-21T02:53:44;12.70;;;8.30;;
24637;SDS011;12773;50.162;8.548;2022-08-21T02:56:33;18.05;;;8.23;;
24637;SDS011;12773;50.162;8.548;2022-08-21T02:59:21;16.60;;;9.55;;
24637;SDS011;12773;50.162;8.548;2022-08-21T03:02:08;18.48;;;9.15;;
24637;SDS011;12773;50.162;8.548;2022-08-21T03:04:57;14.30;;;8.80;;
24637;SDS011;12773;50.162;8.548;2022-08-21T03:07:45;12.58;;;8.75;;
24637;SDS011;12773;50.162;8.548;2022-08-21T03:10:33;13.05;;;8.83;;
24637;SDS011;12773;50.162;8.548;2022-08-21T03:13:21;18.05;;;8.98;;
24637;SDS011;12773;50.162;8.548;2022-08-21T03:16:09;15.80;;;9.35;;
24637;SDS011;12773;50.162;8.548;2022-08-21T03:18:56;22.27;;;10.30;;
24637;SDS011;12773;50.162;8.548;2022-08-21T03:21:45;15.05;;;9.63;;
24637;SDS011;12773;50.162;8.548;2022-08-21T03:24:32;17.35;;;9.08;;
24637;SDS011;12773;50.162;8.548;2022-08-21T03:27:20;13.43;;;9.53;;
24637;SDS011;12773;50.162;8.548;2022-08-21T03:30:08;19.35;;;9.88;;
24637;SDS011;12773;50.162;8.548;2022-08-21T03:32:57;17.15;;;8.58;;
24637;SDS011;12773;50.162;8.548;2022-08-21T03:35:46;13.43;;;8.63;;
24637;SDS011;12773;50.162;8.548;2022-08-21T03:38:36;15.90;;;8.98;;
24637;SDS011;12773;50.162;8.548;2022-08-21T03:41:24;14.18;;;9.08;;
24637;SDS011;12773;50.162;8.548;2022-08-21T03:44:11;13.10;;;8.93;;
24637;SDS011;12773;50.162;8.548;2022-08-21T03:46:59;14.13;;;8.93;;
24637;SDS011;12773;50.162;8.548;2022-08-21T03:49:47;15.25;;;9.83;;
24637;SDS011;12773;50.162;8.548;2022-08-21T03:52:34;14.78;;;8.55;;
24637;SDS011;12773;50.162;8.548;2022-08-21T03:55:22;14.00;;;8.38;;
24637;SDS011;12773;50.162;8.548;2022-08-21T03:58:10;13.85;;;8.93;;
24637;SDS011;12773;50.162;8.548;2022-08-21T04:01:00;15.45;;;8.93;;
24637;SDS011;12773;50.162;8.548;2022-08-21T04:03:50;15.72;;;9.40;;
24637;SDS011;12773;50.162;8.548;2022-08-21T04:06:37;15.40;;;9.30;;
24637;SDS011;12773;50.162;8.548;2022-08-21T04:09:25;16.27;;;10.00;;
24637;SDS011;12773;50.162;8.548;2022-08-21T04:12:13;12.53;;;8.93;;
24637;SDS011;12773;50.162;8.548;2022-08-21T04:15:00;15.43;;;9.13;;
24637;SDS011;12773;50.162;8.548;2022-08-21T04:17:48;19.32;;;10.32;;
24637;SDS011;12773;50.162;8.548;2022-08-21T04:20:35;12.88;;;9.10;;
24637;SDS011;12773;50.162;8.548;2022-08-21T04:23:23;15.72;;;8.73;;
24637;SDS011;12773;50.162;8.548;2022-08-21T04:26:11;16.50;;;9.85;;
24637;SDS011;12773;50.162;8.548;2022-08-21T04:28:58;14.55;;;9.48;;
24637;SDS011;12773;50.162;8.548;2022-08-21T04:31:45;12.28;;;8.40;;
24637;SDS011;12773;50.162;8.548;2022-08-21T04:34:33;17.55;;;8.83;;
24637;SDS011;12773;50.162;8.548;2022-08-21T04:37:20;14.93;;;9.23;;
24637;SDS011;12773;50.162;8.548;2022-08-21T04:40:09;16.35;;;9.50;;
24637;SDS011;12773;50.162;8.548;2022-08-21T04:43:01;17.77;;;9.45;;
24637;SDS011;12773;50.162;8.548;2022-08-21T04:45:48;13.60;;;9.00;;
24637;SDS011;12773;50.162;8.548;2022-08-21T04:48:38;15.43;;;9.60;;
24637;SDS011;12773;50.162;8.548;2022-08-21T04:51:31;13.38;;;9.45;;
24637;SDS011;12773;50.162;8.548;2022-08-21T04:54:21;17.62;;;10.00;;
24637;SDS011;12773;50.162;8.548;2022-08-21T04:57:06;16.75;;;10.70;;
24637;SDS011;12773;50.162;8.548;2022-08-21T04:59:56;18.07;;;11.10;;
24637;SDS011;12773;50.162;8.548;2022-08-21T05:02:44;20.17;;;10.50;;
24637;SDS011;12773;50.162;8.548;2022-08-21T05:05:37;17.17;;;10.13;;
24637;SDS011;12773;50.162;8.548;2022-08-21T05:08:25;17.65;;;10.15;;
24637;SDS011;12773;50.162;8.548;2022-08-21T05:11:14;16.02;;;10.90;;
24637;SDS011;12773;50.162;8.548;2022-08-21T05:14:01;16.15;;;10.10;;
24637;SDS011;12773;50.162;8.548;2022-08-21T05:16:49;17.40;;;10.68;;
24637;SDS011;12773;50.162;8.548;2022-08-21T05:19:36;19.42;;;10.08;;
24637;SDS011;12773;50.162;8.548;2022-08-21T05:22:24;16.12;;;10.58;;
24637;SDS011;12773;50.162;8.548;2022-08-21T05:25:12;20.57;;;11.35;;
24637;SDS011;12773;50.162;8.548;2022-08-21T05:28:01;14.35;;;10.03;;
24637;SDS011;12773;50.162;8.548;2022-08-21T05:30:51;13.95;;;9.78;;
24637;SDS011;12773;50.162;8.548;2022-08-21T05:33:38;15.93;;;9.73;;
24637;SDS011;12773;50.162;8.548;2022-08-21T05:36:28;14.85;;;9.20;;
24637;SDS011;12773;50.162;8.548;2022-08-21T05:39:15;13.55;;;9.00;;
24637;SDS011;12773;50.162;8.548;2022-08-21T05:42:03;12.95;;;9.30;;
24637;SDS011;12773;50.162;8.548;2022-08-21T05:44:51;12.43;;;9.05;;
24637;SDS011;12773;50.162;8.548;2022-08-21T05:47:39;18.98;;;10.20;;
24637;SDS011;12773;50.162;8.548;2022-08-21T05:50:25;16.15;;;9.35;;
24637;SDS011;12773;50.162;8.548;2022-08-21T05:53:15;24.67;;;10.32;;
24637;SDS011;12773;50.162;8.548;2022-08-21T05:56:04;19.60;;;9.70;;
24637;SDS011;12773;50.162;8.548;2022-08-21T05:58:52;17.92;;;9.98;;
24637;SDS011;12773;50.162;8.548;2022-08-21T06:01:41;18.30;;;10.38;;
24637;SDS011;12773;50.162;8.548;2022-08-21T06:04:28;18.27;;;10.08;;
24637;SDS011;12773;50.162;8.548;2022-08-21T06:07:16;20.45;;;9.95;;
24637;SDS011;12773;50.162;8.548;2022-08-21T06:10:04;18.45;;;10.80;;
24637;SDS011;12773;50.162;8.548;2022-08-21T06:12:54;16.02;;;9.18;;
24637;SDS011;12773;50.162;8.548;2022-08-21T06:15:42;20.50;;;9.35;;
24637;SDS011;12773;50.162;8.548;2022-08-21T06:18:30;17.70;;;9.98;;
24637;SDS011;12773;50.162;8.548;2022-08-21T06:21:18;18.07;;;9.33;;
24637;SDS011;12773;50.162;8.548;2022-08-21T06:24:06;18.60;;;9.68;;
24637;SDS011;12773;50.162;8.548;2022-08-21T06:26:54;18.07;;;9.63;;
24637;SDS011;12773;50.162;8.548;2022-08-21T06:29:42;19.92;;;9.98;;
24637;SDS011;12773;50.162;8.548;2022-08-21T06:32:30;19.65;;;9.40;;
24637;SDS011;12773;50.162;8.548;2022-08-21T06:35:18;18.57;;;9.30;;
24637;SDS011;12773;50.162;8.548;2022-08-21T06:38:05;21.95;;;9.75;;
24637;SDS011;12773;50.162;8.548;2022-08-21T06:40:53;17.02;;;9.13;;
24637;SDS011;12773;50.162;8.548;2022-08-21T06:43:41;19.20;;;8.93;;
24637;SDS011;12773;50.162;8.548;2022-08-21T06:46:30;17.02;;;9.05;;
24637;SDS011;12773;50.162;8.548;2022-08-21T06:49:17;19.00;;;9.38;;
24637;SDS011;12773;50.162;8.548;2022-08-21T06:52:10;16.52;;;9.50;;
24637;SDS011;12773;50.162;8.548;2022-08-21T06:54:58;13.60;;;8.73;;
24637;SDS011;12773;50.162;8.548;2022-08-21T06:57:46;18.40;;;8.90;;
24637;SDS011;12773;50.162;8.548;2022-08-21T07:00:39;15.63;;;9.35;;
24637;SDS011;12773;50.162;8.548;2022-08-21T07:03:32;19.12;;;9.15;;
24637;SDS011;12773;50.162;8.548;2022-08-21T07:06:16;16.73;;;8.60;;
24637;SDS011;12773;50.162;8.548;2022-08-21T07:09:03;16.10;;;8.63;;
24637;SDS011;12773;50.162;8.548;2022-08-21T07:11:52;16.65;;;8.70;;
24637;SDS011;12773;50.162;8.548;2022-08-21T07:14:41;15.48;;;8.98;;
24637;SDS011;12773;50.162;8.548;2022-08-21T07:17:28;17.67;;;8.70;;
24637;SDS011;12773;50.162;8.548;2022-08-21T07:20:16;15.83;;;8.65;;
24637;SDS011;12773;50.162;8.548;2022-08-21T07:23:05;18.45;;;8.83;;
24637;SDS011;12773;50.162;8.548;2022-08-21T07:25:54;18.25;;;9.10;;
24637;SDS011;12773;50.162;8.548;2022-08-21T07:28:42;19.55;;;9.08;;
24637;SDS011;12773;50.162;8.548;2022-08-21T07:31:29;17.98;;;8.85;;
24637;SDS011;12773;50.162;8.548;2022-08-21T07:34:17;16.35;;;8.85;;
24637;SDS011;12773;50.162;8.548;2022-08-21T07:37:05;22.95;;;9.08;;
24637;SDS011;12773;50.162;8.548;2022-08-21T07:39:54;17.17;;;9.05;;
24637;SDS011;12773;50.162;8.548;2022-08-21T07:42:46;16.82;;;8.50;;
24637;SDS011;12773;50.162;8.548;2022-08-21T07:45:36;15.98;;;8.73;;
24637;SDS011;12773;50.162;8.548;2022-08-21T07:48:24;15.30;;;8.95;;
24637;SDS011;12773;50.162;8.548;2022-08-21T07:51:13;19.75;;;9.38;;
24637;SDS011;12773;50.162;8.548;2022-08-21T07:54:02;14.63;;;8.43;;
24637;SDS011;12773;50.162;8.548;2022-08-21T07:56:49;18.65;;;9.15;;
24637;SDS011;12773;50.162;8.548;2022-08-21T07:59:37;19.80;;;9.48;;
24637;SDS011;12773;50.162;8.548;2022-08-21T08:02:26;17.15;;;8.48;;
24637;SDS011;12773;50.162;8.548;2022-08-21T08:05:15;17.87;;;8.60;;
24637;SDS011;12773;50.162;8.548;2022-08-21T08:08:03;14.63;;;8.65;;
24637;SDS011;12773;50.162;8.548;2022-08-21T08:10:51;18.90;;;8.53;;
24637;SDS011;12773;50.162;8.548;2022-08-21T08:13:47;18.52;;;8.75;;
24637;SDS011;12773;50.162;8.548;2022-08-21T08:16:37;18.35;;;9.18;;
24637;SDS011;12773;50.162;8.548;2022-08-21T08:19:24;18.87;;;8.88;;
24637;SDS011;12773;50.162;8.548;2022-08-21T08:22:12;12.58;;;8.38;;
24637;SDS011;12773;50.162;8.548;2022-08-21T08:25:01;16.45;;;7.62;;
24637;SDS011;12773;50.162;8.548;2022-08-21T08:27:51;18.27;;;8.60;;
24637;SDS011;12773;50.162;8.548;2022-08-21T08:30:38;18.32;;;7.90;;
24637;SDS011;12773;50.162;8.548;2022-08-21T08:33:35;16.57;;;8.73;;
24637;SDS011;12773;50.162;8.548;2022-08-21T08:36:30;15.55;;;7.58;;
24637;SDS011;12773;50.162;8.548;2022-08-21T08:39:13;14.83;;;7.45;;
24637;SDS011;12773;50.162;8.548;2022-08-21T08:42:09;20.68;;;8.05;;
24637;SDS011;12773;50.162;8.548;2022-08-21T08:45:07;15.60;;;7.30;;
24637;SDS011;12773;50.162;8.548;2022-08-21T08:47:57;15.03;;;7.25;;
24637;SDS011;12773;50.162;8.548;2022-08-21T08:50:52;14.73;;;7.12;;
24637;SDS011;12773;50.162;8.548;2022-08-21T08:53:48;15.90;;;7.53;;
24637;SDS011;12773;50.162;8.548;2022-08-21T08:56:36;16.55;;;6.90;;
24637;SDS011;12773;50.162;8.548;2022-08-21T08:59:26;13.62;;;6.97;;
24637;SDS011;12773;50.162;8.548;2022-08-21T09:02:15;16.62;;;6.50;;
24637;SDS011;12773;50.162;8.548;2022-08-21T09:05:04;12.33;;;5.45;;
24637;SDS011;12773;50.162;8.548;2022-08-21T09:14:09;13.20;;;5.40;;
24637;SDS011;12773;50.162;8.548;2022-08-21T09:23:07;13.93;;;4.92;;
24637;SDS011;12773;50.162;8.548;2022-08-21T09:25:58;9.75;;;4.42;;
24637;SDS011;12773;50.162;8.548;2022-08-21T09:28:52;22.58;;;5.75;;
24637;SDS011;12773;50.162;8.548;2022-08-21T09:31:41;14.03;;;4.70;;
24637;SDS011;12773;50.162;8.548;2022-08-21T09:34:29;10.00;;;3.70;;
24637;SDS011;12773;50.162;8.548;2022-08-21T09:37:17;7.47;;;3.15;;
24637;SDS011;12773;50.162;8.548;2022-08-21T09:40:15;9.23;;;3.50;;
24637;SDS011;12773;50.162;8.548;2022-08-21T09:43:00;11.25;;;3.47;;
24637;SDS011;12773;50.162;8.548;2022-08-21T09:45:49;8.63;;;3.67;;
24637;SDS011;12773;50.162;8.548;2022-08-21T09:48:40;12.30;;;3.02;;
24637;SDS011;12773;50.162;8.548;2022-08-21T09:51:35;11.28;;;3.90;;
24637;SDS011;12773;50.162;8.548;2022-08-21T09:54:25;9.45;;;5.00;;
24637;SDS011;12773;50.162;8.548;2022-08-21T09:57:21;10.63;;;4.57;;
24637;SDS011;12773;50.162;8.548;2022-08-21T10:00:32;14.30;;;4.50;;
24637;SDS011;12773;50.162;8.548;2022-08-21T10:03:18;9.48;;;4.10;;
24637;SDS011;12773;50.162;8.548;2022-08-21T10:06:08;13.32;;;4.05;;
24637;SDS011;12773;50.162;8.548;2022-08-21T10:09:08;9.70;;;4.30;;
24637;SDS011;12773;50.162;8.548;2022-08-21T10:12:00;14.23;;;4.78;;
24637;SDS011;12773;50.162;8.548;2022-08-21T10:14:57;7.70;;;3.90;;
24637;SDS011;12773;50.162;8.548;2022-08-21T10:18:12;11.80;;;4.08;;
24637;SDS011;12773;50.162;8.548;2022-08-21T10:21:17;10.43;;;3.90;;
24637;SDS011;12773;50.162;8.548;2022-08-21T10:24:20;10.25;;;3.37;;
24637;SDS011;12773;50.162;8.548;2022-08-21T10:30:45;7.67;;;3.22;;
24637;SDS011;12773;50.162;8.548;2022-08-21T10:40:12;8.48;;;2.75;;
24637;SDS011;12773;50.162;8.548;2022-08-21T10:46:29;9.00;;;3.05;;
24637;SDS011;12773;50.162;8.548;2022-08-21T10:49:37;8.80;;;2.80;;
24637;SDS011;12773;50.162;8.548;2022-08-21T10:52:51;8.88;;;3.25;;
24637;SDS011;12773;50.162;8.548;2022-08-21T10:55:44;10.32;;;2.83;;
24637;SDS011;12773;50.162;8.548;2022-08-21T10:58:37;10.32;;;2.90;;
24637;SDS011;12773;50.162;8.548;2022-08-21T11:01:46;9.70;;;2.80;;
24637;SDS011;12773;50.162;8.548;2022-08-21T11:07:38;9.90;;;2.75;;
24637;SDS011;12773;50.162;8.548;2022-08-21T11:10:39;9.08;;;3.40;;
24637;SDS011;12773;50.162;8.548;2022-08-21T11:19:29;10.90;;;2.87;;
24637;SDS011;12773;50.162;8.548;2022-08-21T11:25:26;6.60;;;2.65;;
24637;SDS011;12773;50.162;8.548;2022-08-21T11:28:22;10.08;;;2.90;;
24637;SDS011;12773;50.162;8.548;2022-08-21T11:31:23;10.08;;;2.65;;
24637;SDS011;12773;50.162;8.548;2022-08-21T11:41:01;10.08;;;3.02;;
24637;SDS011;12773;50.162;8.548;2022-08-21T11:47:23;11.25;;;2.90;;
24637;SDS011;12773;50.162;8.548;2022-08-21T11:50:13;7.85;;;3.00;;
24637;SDS011;12773;50.162;8.548;2022-08-21T11:53:09;6.83;;;2.58;;
24637;SDS011;12773;50.162;8.548;2022-08-21T11:56:02;7.55;;;2.67;;
24637;SDS011;12773;50.162;8.548;2022-08-21T11:58:51;8.15;;;2.50;;
24637;SDS011;12773;50.162;8.548;2022-08-21T12:02:00;5.22;;;2.30;;
24637;SDS011;12773;50.162;8.548;2022-08-21T12:04:50;6.70;;;2.40;;
24637;SDS011;12773;50.162;8.548;2022-08-21T12:07:43;8.05;;;2.67;;
24637;SDS011;12773;50.162;8.548;2022-08-21T12:10:33;10.55;;;2.52;;
24637;SDS011;12773;50.162;8.548;2022-08-21T12:13:23;10.58;;;2.77;;
24637;SDS011;12773;50.162;8.548;2022-08-21T12:16:15;5.47;;;2.42;;
24637;SDS011;12773;50.162;8.548;2022-08-21T12:19:05;8.53;;;3.10;;
24637;SDS011;12773;50.162;8.548;2022-08-21T12:25:02;7.17;;;2.72;;
24637;SDS011;12773;50.162;8.548;2022-08-21T12:27:50;7.05;;;2.60;;
24637;SDS011;12773;50.162;8.548;2022-08-21T12:30:39;7.28;;;2.52;;
24637;SDS011;12773;50.162;8.548;2022-08-21T12:33:35;9.80;;;3.42;;
24637;SDS011;12773;50.162;8.548;2022-08-21T12:36:39;5.40;;;2.27;;
24637;SDS011;12773;50.162;8.548;2022-08-21T12:39:33;6.28;;;2.30;;
24637;SDS011;12773;50.162;8.548;2022-08-21T12:42:24;3.35;;;2.08;;
24637;SDS011;12773;50.162;8.548;2022-08-21T12:45:40;6.42;;;2.30;;
24637;SDS011;12773;50.162;8.548;2022-08-21T12:51:46;6.67;;;2.20;;
24637;SDS011;12773;50.162;8.548;2022-08-21T12:54:42;6.28;;;2.70;;
24637;SDS011;12773;50.162;8.548;2022-08-21T12:57:30;9.00;;;2.50;;
24637;SDS011;12773;50.162;8.548;2022-08-21T13:00:20;6.33;;;2.20;;
24637;SDS011;12773;50.162;8.548;2022-08-21T13:03:08;9.60;;;2.58;;
24637;SDS011;12773;50.162;8.548;2022-08-21T13:05:55;7.25;;;2.65;;
24637;SDS011;12773;50.162;8.548;2022-08-21T13:08:45;5.85;;;2.62;;
24637;SDS011;12773;50.162;8.548;2022-08-21T13:11:34;7.65;;;2.60;;
24637;SDS011;12773;50.162;8.548;2022-08-21T13:14:28;9.38;;;2.37;;
24637;SDS011;12773;50.162;8.548;2022-08-21T13:17:19;5.40;;;2.22;;
24637;SDS011;12773;50.162;8.548;2022-08-21T13:20:18;6.12;;;2.00;;
24637;SDS011;12773;50.162;8.548;2022-08-21T13:23:31;6.50;;;2.98;;
24637;SDS011;12773;50.162;8.548;2022-08-21T13:26:15;7.58;;;2.70;;
24637;SDS011;12773;50.162;8.548;2022-08-21T13:29:09;11.12;;;2.75;;
24637;SDS011;12773;50.162;8.548;2022-08-21T13:31:59;9.65;;;2.75;;
24637;SDS011;12773;50.162;8.548;2022-08-21T13:34:48;7.55;;;2.45;;
24637;SDS011;12773;50.162;8.548;2022-08-21T13:37:38;6.67;;;2.60;;
24637;SDS011;12773;50.162;8.548;2022-08-21T13:40:44;7.17;;;2.60;;
24637;SDS011;12773;50.162;8.548;2022-08-21T13:43:32;6.75;;;2.00;;
24637;SDS011;12773;50.162;8.548;2022-08-21T13:46:21;4.05;;;2.08;;
24637;SDS011;12773;50.162;8.548;2022-08-21T13:49:10;5.40;;;1.90;;
24637;SDS011;12773;50.162;8.548;2022-08-21T13:52:02;2.70;;;1.65;;
24637;SDS011;12773;50.162;8.548;2022-08-21T13:57:44;4.80;;;1.95;;
24637;SDS011;12773;50.162;8.548;2022-08-21T14:00:32;4.72;;;2.08;;
24637;SDS011;12773;50.162;8.548;2022-08-21T14:06:36;5.90;;;1.80;;
24637;SDS011;12773;50.162;8.548;2022-08-21T14:09:31;6.58;;;1.80;;
24637;SDS011;12773;50.162;8.548;2022-08-21T14:12:25;5.35;;;2.12;;
24637;SDS011;12773;50.162;8.548;2022-08-21T14:15:15;4.62;;;1.95;;
24637;SDS011;12773;50.162;8.548;2022-08-21T14:18:15;4.20;;;1.70;;
24637;SDS011;12773;50.162;8.548;2022-08-21T14:21:09;5.12;;;1.70;;
24637;SDS011;12773;50.162;8.548;2022-08-21T14:24:03;6.30;;;2.20;;
24637;SDS011;12773;50.162;8.548;2022-08-21T14:26:53;4.53;;;1.62;;
24637;SDS011;12773;50.162;8.548;2022-08-21T14:29:46;3.72;;;1.72;;
24637;SDS011;12773;50.162;8.548;2022-08-21T14:32:37;7.45;;;2.00;;
24637;SDS011;12773;50.162;8.548;2022-08-21T14:35:28;5.70;;;1.80;;
24637;SDS011;12773;50.162;8.548;2022-08-21T14:38:17;4.47;;;1.70;;
24637;SDS011;12773;50.162;8.548;2022-08-21T14:41:19;3.02;;;1.65;;
24637;SDS011;12773;50.162;8.548;2022-08-21T14:44:09;5.83;;;2.00;;
24637;SDS011;12773;50.162;8.548;2022-08-21T14:46:58;3.52;;;1.70;;
24637;SDS011;12773;50.162;8.548;2022-08-21T14:49:45;3.92;;;1.95;;
24637;SDS011;12773;50.162;8.548;2022-08-21T14:52:33;5.15;;;1.95;;
24637;SDS011;12773;50.162;8.548;2022-08-21T14:55:22;3.67;;;1.90;;
24637;SDS011;12773;50.162;8.548;2022-08-21T14:58:10;5.15;;;2.30;;
24637;SDS011;12773;50.162;8.548;2022-08-21T15:00:57;5.45;;;1.72;;
24637;SDS011;12773;50.162;8.548;2022-08-21T15:03:46;3.83;;;1.80;;
24637;SDS011;12773;50.162;8.548;2022-08-21T15:06:34;3.45;;;1.72;;
24637;SDS011;12773;50.162;8.548;2022-08-21T15:09:22;5.80;;;1.90;;
24637;SDS011;12773;50.162;8.548;2022-08-21T15:12:10;6.72;;;2.10;;
24637;SDS011;12773;50.162;8.548;2022-08-21T15:14:59;8.10;;;2.02;;
24637;SDS011;12773;50.162;8.548;2022-08-21T15:17:46;3.60;;;1.70;;
24637;SDS011;12773;50.162;8.548;2022-08-21T15:20:34;7.05;;;1.98;;
24637;SDS011;12773;50.162;8.548;2022-08-21T15:23:22;6.47;;;1.90;;
24637;SDS011;12773;50.162;8.548;2022-08-21T15:26:12;3.85;;;1.45;;
24637;SDS011;12773;50.162;8.548;2022-08-21T15:29:00;4.10;;;1.90;;
24637;SDS011;12773;50.162;8.548;2022-08-21T15:32:17;5.37;;;1.42;;
24637;SDS011;12773;50.162;8.548;2022-08-21T15:34:51;4.00;;;1.95;;
24637;SDS011;12773;50.162;8.548;2022-08-21T15:37:39;5.00;;;1.55;;
24637;SDS011;12773;50.162;8.548;2022-08-21T15:40:27;4.35;;;1.98;;
24637;SDS011;12773;50.162;8.548;2022-08-21T15:43:37;4.70;;;1.80;;
24637;SDS011;12773;50.162;8.548;2022-08-21T15:46:15;4.40;;;1.75;;
24637;SDS011;12773;50.162;8.548;2022-08-21T15:49:05;7.47;;;2.00;;
24637;SDS011;12773;50.162;8.548;2022-08-21T15:51:52;3.67;;;1.52;;
24637;SDS011;12773;50.162;8.548;2022-08-21T15:54:40;5.65;;;1.95;;
24637;SDS011;12773;50.162;8.548;2022-08-21T15:57:28;4.17;;;1.72;;
24637;SDS011;12773;50.162;8.548;2022-08-21T16:00:18;5.00;;;1.80;;
24637;SDS011;12773;50.162;8.548;2022-08-21T16:03:08;5.22;;;1.72;;
24637;SDS011;12773;50.162;8.548;2022-08-21T16:05:59;5.37;;;1.90;;
24637;SDS011;12773;50.162;8.548;2022-08-21T16:08:46;6.55;;;1.80;;
24637;SDS011;12773;50.162;8.548;2022-08-21T16:11:33;3.45;;;1.40;;
24637;SDS011;12773;50.162;8.548;2022-08-21T16:14:20;4.08;;;1.50;;
24637;SDS011;12773;50.162;8.548;2022-08-21T16:17:08;3.83;;;1.70;;
24637;SDS011;12773;50.162;8.548;2022-08-21T16:19:56;6.85;;;1.62;;
24637;SDS011;12773;50.162;8.548;2022-08-21T16:22:45;3.65;;;1.80;;
24637;SDS011;12773;50.162;8.548;2022-08-21T16:25:36;7.72;;;1.70;;
24637;SDS011;12773;50.162;8.548;2022-08-21T16:28:25;5.00;;;1.92;;
24637;SDS011;12773;50.162;8.548;2022-08-21T16:31:12;5.45;;;1.62;;
24637;SDS011;12773;50.162;8.548;2022-08-21T16:34:00;6.80;;;2.05;;
24637;SDS011;12773;50.162;8.548;2022-08-21T16:36:48;5.00;;;2.92;;
24637;SDS011;12773;50.162;8.548;2022-08-21T16:39:36;4.28;;;2.50;;
24637;SDS011;12773;50.162;8.548;2022-08-21T16:42:25;2.98;;;1.70;;
24637;SDS011;12773;50.162;8.548;2022-08-21T16:45:14;3.52;;;1.95;;
24637;SDS011;12773;50.162;8.548;2022-08-21T16:48:03;5.95;;;1.65;;
24637;SDS011;12773;50.162;8.548;2022-08-21T16:50:52;4.60;;;1.67;;
24637;SDS011;12773;50.162;8.548;2022-08-21T16:53:40;3.45;;;1.50;;
24637;SDS011;12773;50.162;8.548;2022-08-21T16:56:28;5.42;;;1.47;;
24637;SDS011;12773;50.162;8.548;2022-08-21T16:59:16;6.53;;;1.70;;
24637;SDS011;12773;50.162;8.548;2022-08-21T17:02:04;6.35;;;1.87;;
24637;SDS011;12773;50.162;8.548;2022-08-21T17:04:54;3.80;;;1.60;;
24637;SDS011;12773;50.162;8.548;2022-08-21T17:07:42;2.62;;;1.30;;
24637;SDS011;12773;50.162;8.548;2022-08-21T17:10:30;5.83;;;1.80;;
24637;SDS011;12773;50.162;8.548;2022-08-21T17:13:18;3.42;;;1.37;;
24637;SDS011;12773;50.162;8.548;2022-08-21T17:16:06;3.90;;;1.25;;
24637;SDS011;12773;50.162;8.548;2022-08-21T17:18:53;2.12;;;1.40;;
24637;SDS011;12773;50.162;8.548;2022-08-21T17:21:42;5.72;;;2.12;;
24637;SDS011;12773;50.162;8.548;2022-08-21T17:24:30;5.72;;;1.40;;
24637;SDS011;12773;50.162;8.548;2022-08-21T17:27:17;5.90;;;1.75;;
24637;SDS011;12773;50.162;8.548;2022-08-21T17:30:09;4.58;;;1.50;;
24637;SDS011;12773;50.162;8.548;2022-08-21T17:32:58;4.72;;;1.50;;
24637;SDS011;12773;50.162;8.548;2022-08-21T17:35:46;4.80;;;1.57;;
24637;SDS011;12773;50.162;8.548;2022-08-21T17:38:34;3.77;;;1.60;;
24637;SDS011;12773;50.162;8.548;2022-08-21T17:41:22;3.40;;;1.60;;
24637;SDS011;12773;50.162;8.548;2022-08-21T17:44:11;3.58;;;1.20;;
24637;SDS011;12773;50.162;8.548;2022-08-21T17:47:03;4.03;;;1.50;;
24637;SDS011;12773;50.162;8.548;2022-08-21T17:49:52;3.15;;;1.65;;
24637;SDS011;12773;50.162;8.548;2022-08-21T17:52:39;3.20;;;1.50;;
24637;SDS011;12773;50.162;8.548;2022-08-21T17:55:29;2.58;;;1.75;;
24637;SDS011;12773;50.162;8.548;2022-08-21T17:58:18;4.72;;;1.77;;